sensor_id;sensor_type;location;lat;lon;timestamp;pressure;altitude;pressure_sealevel;temperature;humidity
78317;BME280;67572;50.930;18.276;2023-09-30T00:01:41;99232.97;;;17.01;63.90
78317;BME280;67572;50.930;18.276;2023-09-30T00:04:46;99230.69;;;17.06;63.38
78317;BME280;67572;50.930;18.276;2023-09-30T00:07:49;99235.78;;;16.99;63.91
78317;BME280;67572;50.930;18.276;2023-09-30T00:10:52;99238.75;;;17.06;63.63
78317;BME280;67572;50.930;18.276;2023-09-30T00:13:57;99237.63;;;16.99;63.91
78317;BME280;67572;50.930;18.276;2023-09-30T00:17:01;99243.84;;;16.99;64.06
78317;BME280;67572;50.930;18.276;2023-09-30T00:20:06;99238.59;;;16.98;64.32
78317;BME280;67572;50.930;18.276;2023-09-30T00:23:09;99239.91;;;16.94;64.25
78317;BME280;67572;50.930;18.276;2023-09-30T00:26:12;99239.59;;;16.97;64.62
78317;BME280;67572;50.930;18.276;2023-09-30T00:29:19;99235.94;;;16.88;64.59
78317;BME280;67572;50.930;18.276;2023-09-30T00:32:23;99240.72;;;16.84;64.86
78317;BME280;67572;50.930;18.276;2023-09-30T00:35:26;99234.41;;;16.85;64.61
78317;BME280;67572;50.930;18.276;2023-09-30T00:38:30;99230.41;;;16.89;64.67
78317;BME280;67572;50.930;18.276;2023-09-30T00:41:33;99233.41;;;16.86;64.76
78317;BME280;67572;50.930;18.276;2023-09-30T00:44:38;99232.13;;;16.81;64.99
78317;BME280;67572;50.930;18.276;2023-09-30T00:47:41;99234.81;;;16.81;65.16
78317;BME280;67572;50.930;18.276;2023-09-30T00:50:46;99235.94;;;16.88;65.00
78317;BME280;67572;50.930;18.276;2023-09-30T00:53:51;99240.72;;;16.84;64.89
78317;BME280;67572;50.930;18.276;2023-09-30T00:56:55;99233.94;;;16.90;64.68
78317;BME280;67572;50.930;18.276;2023-09-30T01:00:01;99241.72;;;16.83;64.88
78317;BME280;67572;50.930;18.276;2023-09-30T01:03:06;99236.63;;;16.90;64.65
78317;BME280;67572;50.930;18.276;2023-09-30T01:06:11;99247.22;;;16.91;64.65
78317;BME280;67572;50.930;18.276;2023-09-30T01:09:15;99240.16;;;17.00;64.23
78317;BME280;67572;50.930;18.276;2023-09-30T01:12:19;99243.25;;;17.05;64.03
78317;BME280;67572;50.930;18.276;2023-09-30T01:15:24;99236.91;;;17.16;63.43
78317;BME280;67572;50.930;18.276;2023-09-30T01:18:27;99240.44;;;17.16;63.58
78317;BME280;67572;50.930;18.276;2023-09-30T01:21:34;99247.47;;;17.27;63.29
78317;BME280;67572;50.930;18.276;2023-09-30T01:24:38;99240.72;;;17.23;63.64
78317;BME280;67572;50.930;18.276;2023-09-30T01:27:42;99246.34;;;17.20;64.11
78317;BME280;67572;50.930;18.276;2023-09-30T01:30:46;99253.13;;;17.14;65.46
78317;BME280;67572;50.930;18.276;2023-09-30T01:33:49;99253.16;;;17.24;65.46
78317;BME280;67572;50.930;18.276;2023-09-30T01:36:57;99256.16;;;17.02;67.48
78317;BME280;67572;50.930;18.276;2023-09-30T01:40:01;99258.09;;;17.00;68.39
78317;BME280;67572;50.930;18.276;2023-09-30T01:43:05;99256.28;;;16.90;69.49
78317;BME280;67572;50.930;18.276;2023-09-30T01:46:08;99251.78;;;16.81;69.67
78317;BME280;67572;50.930;18.276;2023-09-30T01:49:12;99255.69;;;16.58;71.45
78317;BME280;67572;50.930;18.276;2023-09-30T01:52:16;99259.63;;;16.54;71.02
78317;BME280;67572;50.930;18.276;2023-09-30T01:55:20;99251.47;;;16.65;70.85
78317;BME280;67572;50.930;18.276;2023-09-30T01:58:23;99249.91;;;16.62;71.65
78317;BME280;67572;50.930;18.276;2023-09-30T02:01:26;99259.22;;;16.49;73.06
78317;BME280;67572;50.930;18.276;2023-09-30T02:04:30;99256.53;;;16.49;73.21
78317;BME280;67572;50.930;18.276;2023-09-30T02:07:35;99253.31;;;16.64;72.44
78317;BME280;67572;50.930;18.276;2023-09-30T02:10:38;99247.94;;;16.84;71.63
78317;BME280;67572;50.930;18.276;2023-09-30T02:13:42;99260.81;;;16.90;71.18
78317;BME280;67572;50.930;18.276;2023-09-30T02:16:46;99257.97;;;16.91;72.62
78317;BME280;67572;50.930;18.276;2023-09-30T02:19:49;99259.00;;;16.71;73.85
78317;BME280;67572;50.930;18.276;2023-09-30T02:22:56;99253.97;;;16.47;75.09
78317;BME280;67572;50.930;18.276;2023-09-30T02:26:01;99245.66;;;16.41;76.03
78317;BME280;67572;50.930;18.276;2023-09-30T02:29:04;99248.94;;;16.63;75.21
78317;BME280;67572;50.930;18.276;2023-09-30T02:32:09;99256.66;;;16.47;76.18
78317;BME280;67572;50.930;18.276;2023-09-30T02:35:13;99258.22;;;16.50;75.48
78317;BME280;67572;50.930;18.276;2023-09-30T02:38:18;99257.38;;;16.49;75.31
78317;BME280;67572;50.930;18.276;2023-09-30T02:41:22;99254.81;;;16.38;75.79
78317;BME280;67572;50.930;18.276;2023-09-30T02:44:26;99257.50;;;16.28;77.99
78317;BME280;67572;50.930;18.276;2023-09-30T02:47:29;99254.38;;;16.23;78.15
78317;BME280;67572;50.930;18.276;2023-09-30T02:50:34;99252.00;;;16.40;76.59
78317;BME280;67572;50.930;18.276;2023-09-30T02:53:38;99267.63;;;16.15;77.60
78317;BME280;67572;50.930;18.276;2023-09-30T02:56:42;99266.38;;;16.29;77.24
78317;BME280;67572;50.930;18.276;2023-09-30T02:59:47;99269.31;;;16.16;77.57
78317;BME280;67572;50.930;18.276;2023-09-30T03:02:52;99266.53;;;16.27;77.65
78317;BME280;67572;50.930;18.276;2023-09-30T03:05:56;99275.13;;;16.31;78.78
78317;BME280;67572;50.930;18.276;2023-09-30T03:09:01;99281.31;;;16.02;81.07
78317;BME280;67572;50.930;18.276;2023-09-30T03:12:06;99282.38;;;15.90;83.10
78317;BME280;67572;50.930;18.276;2023-09-30T03:15:11;99284.03;;;15.81;83.75
78317;BME280;67572;50.930;18.276;2023-09-30T03:18:14;99281.84;;;15.96;84.10
78317;BME280;67572;50.930;18.276;2023-09-30T03:21:19;99282.69;;;15.97;84.74
78317;BME280;67572;50.930;18.276;2023-09-30T03:24:24;99279.00;;;15.88;86.66
78317;BME280;67572;50.930;18.276;2023-09-30T03:27:29;99280.53;;;15.91;87.80
78317;BME280;67572;50.930;18.276;2023-09-30T03:30:32;99280.25;;;15.94;87.69
78317;BME280;67572;50.930;18.276;2023-09-30T03:33:37;99290.06;;;16.14;87.15
78317;BME280;67572;50.930;18.276;2023-09-30T03:36:41;99280.63;;;16.10;87.35
78317;BME280;67572;50.930;18.276;2023-09-30T03:39:46;99280.34;;;16.13;88.80
78317;BME280;67572;50.930;18.276;2023-09-30T03:42:51;99284.72;;;16.24;88.77
78317;BME280;67572;50.930;18.276;2023-09-30T03:45:55;99293.75;;;16.23;89.55
78317;BME280;67572;50.930;18.276;2023-09-30T03:48:59;99291.81;;;16.25;89.84
78317;BME280;67572;50.930;18.276;2023-09-30T03:52:03;99291.91;;;16.14;90.94
78317;BME280;67572;50.930;18.276;2023-09-30T03:55:10;99290.91;;;16.15;91.54
78317;BME280;67572;50.930;18.276;2023-09-30T03:58:13;99288.69;;;16.29;90.97
78317;BME280;67572;50.930;18.276;2023-09-30T04:01:17;99292.81;;;16.33;91.62
78317;BME280;67572;50.930;18.276;2023-09-30T04:04:21;99289.97;;;16.25;92.56
78317;BME280;67572;50.930;18.276;2023-09-30T04:07:25;99297.91;;;16.36;93.15
78317;BME280;67572;50.930;18.276;2023-09-30T04:10:31;99304.09;;;16.37;94.12
78317;BME280;67572;50.930;18.276;2023-09-30T04:13:34;99302.31;;;16.57;93.83
78317;BME280;67572;50.930;18.276;2023-09-30T04:16:37;99304.16;;;16.66;93.33
78317;BME280;67572;50.930;18.276;2023-09-30T04:19:41;99316.44;;;16.69;93.53
78317;BME280;67572;50.930;18.276;2023-09-30T04:22:45;99299.84;;;16.94;92.01
78317;BME280;67572;50.930;18.276;2023-09-30T04:25:52;99308.31;;;16.89;91.74
78317;BME280;67572;50.930;18.276;2023-09-30T04:28:55;99308.31;;;16.89;91.97
78317;BME280;67572;50.930;18.276;2023-09-30T04:31:59;99311.44;;;16.95;91.97
78317;BME280;67572;50.930;18.276;2023-09-30T04:35:03;99309.16;;;17.00;91.31
78317;BME280;67572;50.930;18.276;2023-09-30T04:38:06;99309.16;;;17.00;91.09
78317;BME280;67572;50.930;18.276;2023-09-30T04:41:11;99308.44;;;16.98;91.04
78317;BME280;67572;50.930;18.276;2023-09-30T04:44:15;99312.00;;;17.08;90.87
78317;BME280;67572;50.930;18.276;2023-09-30T04:47:18;99319.03;;;16.99;90.84
78317;BME280;67572;50.930;18.276;2023-09-30T04:50:22;99319.63;;;17.03;91.02
78317;BME280;67572;50.930;18.276;2023-09-30T04:53:26;99326.84;;;17.02;91.45
78317;BME280;67572;50.930;18.276;2023-09-30T04:56:30;99325.53;;;17.06;91.29
78317;BME280;67572;50.930;18.276;2023-09-30T04:59:34;99326.97;;;17.10;90.68
78317;BME280;67572;50.930;18.276;2023-09-30T05:02:37;99333.31;;;16.90;91.70
78317;BME280;67572;50.930;18.276;2023-09-30T05:05:41;99342.94;;;16.92;92.20
78317;BME280;67572;50.930;18.276;2023-09-30T05:08:44;99354.81;;;16.80;93.56
78317;BME280;67572;50.930;18.276;2023-09-30T05:11:49;99360.78;;;16.94;92.94
78317;BME280;67572;50.930;18.276;2023-09-30T05:14:52;99343.09;;;17.01;92.78
78317;BME280;67572;50.930;18.276;2023-09-30T05:17:56;99352.72;;;16.94;92.54
78317;BME280;67572;50.930;18.276;2023-09-30T05:21:00;99352.72;;;17.03;92.23
78317;BME280;67572;50.930;18.276;2023-09-30T05:24:04;99358.22;;;17.11;92.32
78317;BME280;67572;50.930;18.276;2023-09-30T05:27:09;99364.28;;;17.13;92.14
78317;BME280;67572;50.930;18.276;2023-09-30T05:30:13;99369.81;;;17.12;92.06
78317;BME280;67572;50.930;18.276;2023-09-30T05:33:18;99370.81;;;17.11;91.98
78317;BME280;67572;50.930;18.276;2023-09-30T05:36:22;99383.41;;;17.01;93.07
78317;BME280;67572;50.930;18.276;2023-09-30T05:39:25;99388.78;;;17.10;92.44
78317;BME280;67572;50.930;18.276;2023-09-30T05:42:30;99398.38;;;17.13;92.67
78317;BME280;67572;50.930;18.276;2023-09-30T05:45:33;99400.78;;;17.06;92.92
78317;BME280;67572;50.930;18.276;2023-09-30T05:48:37;99396.53;;;17.04;93.17
78317;BME280;67572;50.930;18.276;2023-09-30T05:51:41;99399.66;;;17.09;92.48
78317;BME280;67572;50.930;18.276;2023-09-30T05:54:45;99403.06;;;17.11;92.74
78317;BME280;67572;50.930;18.276;2023-09-30T05:57:50;99403.59;;;17.14;92.56
78317;BME280;67572;50.930;18.276;2023-09-30T06:00:54;99399.38;;;17.31;91.41
78317;BME280;67572;50.930;18.276;2023-09-30T06:03:57;99412.09;;;17.19;91.94
78317;BME280;67572;50.930;18.276;2023-09-30T06:07:01;99420.16;;;17.10;92.77
78317;BME280;67572;50.930;18.276;2023-09-30T06:10:06;99427.78;;;17.14;92.57
78317;BME280;67572;50.930;18.276;2023-09-30T06:13:13;99430.06;;;17.19;92.45
78317;BME280;67572;50.930;18.276;2023-09-30T06:16:17;99430.50;;;17.24;92.12
78317;BME280;67572;50.930;18.276;2023-09-30T06:19:21;99432.19;;;17.25;92.07
78317;BME280;67572;50.930;18.276;2023-09-30T06:22:24;99432.19;;;17.25;92.00
78317;BME280;67572;50.930;18.276;2023-09-30T06:25:30;99436.16;;;17.31;91.76
78317;BME280;67572;50.930;18.276;2023-09-30T06:28:36;99444.22;;;17.40;91.97
78317;BME280;67572;50.930;18.276;2023-09-30T06:31:43;99450.72;;;17.38;91.32
78317;BME280;67572;50.930;18.276;2023-09-30T06:34:46;99457.66;;;17.31;92.76
78317;BME280;67572;50.930;18.276;2023-09-30T06:37:49;99456.53;;;17.43;92.16
78317;BME280;67572;50.930;18.276;2023-09-30T06:40:53;99456.38;;;17.44;91.66
78317;BME280;67572;50.930;18.276;2023-09-30T06:43:57;99438.72;;;17.61;91.29
78317;BME280;67572;50.930;18.276;2023-09-30T06:47:01;99450.03;;;17.65;90.74
78317;BME280;67572;50.930;18.276;2023-09-30T06:50:09;99444.63;;;17.65;90.84
78317;BME280;67572;50.930;18.276;2023-09-30T06:53:14;99451.56;;;17.58;90.89
78317;BME280;67572;50.930;18.276;2023-09-30T06:56:18;99454.97;;;17.60;91.39
78317;BME280;67572;50.930;18.276;2023-09-30T06:59:22;99451.31;;;17.61;90.88
78317;BME280;67572;50.930;18.276;2023-09-30T07:02:27;99453.56;;;17.65;90.48
78317;BME280;67572;50.930;18.276;2023-09-30T07:05:31;99459.78;;;17.75;90.44
78317;BME280;67572;50.930;18.276;2023-09-30T07:08:35;99469.00;;;17.83;90.09
78317;BME280;67572;50.930;18.276;2023-09-30T07:11:38;99477.50;;;17.78;90.82
78317;BME280;67572;50.930;18.276;2023-09-30T07:14:43;99476.50;;;17.79;89.98
78317;BME280;67572;50.930;18.276;2023-09-30T07:17:47;99473.25;;;17.75;90.60
78317;BME280;67572;50.930;18.276;2023-09-30T07:20:50;99480.75;;;17.82;90.42
78317;BME280;67572;50.930;18.276;2023-09-30T07:23:54;99485.44;;;17.80;90.64
78317;BME280;67572;50.930;18.276;2023-09-30T07:26:58;99500.28;;;17.93;90.89
78317;BME280;67572;50.930;18.276;2023-09-30T07:30:06;99490.53;;;17.92;90.79
78317;BME280;67572;50.930;18.276;2023-09-30T07:33:09;99502.53;;;18.08;89.57
78317;BME280;67572;50.930;18.276;2023-09-30T07:36:13;99503.25;;;18.10;89.52
78317;BME280;67572;50.930;18.276;2023-09-30T07:39:17;99500.13;;;18.05;88.14
78317;BME280;67572;50.930;18.276;2023-09-30T07:42:21;99505.22;;;18.08;87.93
78317;BME280;67572;50.930;18.276;2023-09-30T07:45:26;99514.00;;;18.10;88.59
78317;BME280;67572;50.930;18.276;2023-09-30T07:48:30;99518.13;;;18.14;89.14
78317;BME280;67572;50.930;18.276;2023-09-30T07:51:34;99513.97;;;18.29;88.73
78317;BME280;67572;50.930;18.276;2023-09-30T07:54:38;99516.78;;;18.27;87.55
78317;BME280;67572;50.930;18.276;2023-09-30T07:57:42;99518.78;;;18.25;88.49
78317;BME280;67572;50.930;18.276;2023-09-30T08:00:49;99517.38;;;18.31;88.28
78317;BME280;67572;50.930;18.276;2023-09-30T08:03:53;99521.06;;;18.11;88.10
78317;BME280;67572;50.930;18.276;2023-09-30T08:06:56;99527.47;;;17.90;88.75
78317;BME280;67572;50.930;18.276;2023-09-30T08:10:00;99522.09;;;18.00;88.71
78317;BME280;67572;50.930;18.276;2023-09-30T08:13:06;99538.25;;;18.00;89.07
78317;BME280;67572;50.930;18.276;2023-09-30T08:16:11;99544.44;;;17.91;89.38
78317;BME280;67572;50.930;18.276;2023-09-30T08:19:15;99542.34;;;17.94;89.94
78317;BME280;67572;50.930;18.276;2023-09-30T08:22:19;99547.28;;;17.89;90.46
78317;BME280;67572;50.930;18.276;2023-09-30T08:25:23;99550.97;;;17.79;90.50
78317;BME280;67572;50.930;18.276;2023-09-30T08:28:27;99562.16;;;17.74;90.32
78317;BME280;67572;50.930;18.276;2023-09-30T08:31:31;99561.13;;;17.65;90.58
78317;BME280;67572;50.930;18.276;2023-09-30T08:34:36;99567.03;;;17.59;90.95
78317;BME280;67572;50.930;18.276;2023-09-30T08:37:39;99577.03;;;17.28;92.67
78317;BME280;67572;50.930;18.276;2023-09-30T08:40:49;99578.50;;;17.02;94.41
78317;BME280;67572;50.930;18.276;2023-09-30T08:43:55;99581.13;;;16.92;95.52
78317;BME280;67572;50.930;18.276;2023-09-30T08:47:03;99590.31;;;16.89;96.19
78317;BME280;67572;50.930;18.276;2023-09-30T08:50:08;99588.03;;;16.85;96.04
78317;BME280;67572;50.930;18.276;2023-09-30T08:53:14;99587.56;;;16.70;94.88
78317;BME280;67572;50.930;18.276;2023-09-30T08:56:22;99583.66;;;16.63;94.84
78317;BME280;67572;50.930;18.276;2023-09-30T08:59:27;99584.03;;;16.58;94.56
78317;BME280;67572;50.930;18.276;2023-09-30T09:02:33;99588.28;;;16.61;94.61
78317;BME280;67572;50.930;18.276;2023-09-30T09:05:37;99588.97;;;16.74;95.05
78317;BME280;67572;50.930;18.276;2023-09-30T09:08:40;99592.91;;;16.49;95.25
78317;BME280;67572;50.930;18.276;2023-09-30T09:11:44;99589.28;;;16.39;95.63
78317;BME280;67572;50.930;18.276;2023-09-30T09:14:48;99604.63;;;16.27;95.54
78317;BME280;67572;50.930;18.276;2023-09-30T09:17:56;99607.47;;;16.15;95.35
78317;BME280;67572;50.930;18.276;2023-09-30T09:21:08;99615.88;;;15.89;96.09
78317;BME280;67572;50.930;18.276;2023-09-30T09:24:26;99621.16;;;15.79;96.08
78317;BME280;67572;50.930;18.276;2023-09-30T09:27:34;99633.22;;;15.74;94.89
78317;BME280;67572;50.930;18.276;2023-09-30T09:30:38;99638.81;;;15.71;94.08
78317;BME280;67572;50.930;18.276;2023-09-30T09:33:45;99645.66;;;15.75;93.44
78317;BME280;67572;50.930;18.276;2023-09-30T09:36:48;99642.13;;;15.63;92.43
78317;BME280;67572;50.930;18.276;2023-09-30T09:39:53;99645.28;;;15.68;91.56
78317;BME280;67572;50.930;18.276;2023-09-30T09:42:59;99653.91;;;15.83;91.36
78317;BME280;67572;50.930;18.276;2023-09-30T09:46:07;99659.84;;;15.87;91.47
78317;BME280;67572;50.930;18.276;2023-09-30T09:49:15;99662.66;;;15.96;90.16
78317;BME280;67572;50.930;18.276;2023-09-30T09:52:22;99663.53;;;15.86;88.10
78317;BME280;67572;50.930;18.276;2023-09-30T09:55:27;99666.81;;;15.89;87.23
78317;BME280;67572;50.930;18.276;2023-09-30T09:58:32;99669.47;;;16.00;87.06
78317;BME280;67572;50.930;18.276;2023-09-30T10:01:37;99673.38;;;15.96;86.33
78317;BME280;67572;50.930;18.276;2023-09-30T10:04:43;99671.56;;;15.97;84.50
78317;BME280;67572;50.930;18.276;2023-09-30T10:07:52;99679.09;;;16.03;84.03
78317;BME280;67572;50.930;18.276;2023-09-30T10:11:00;99686.53;;;16.11;83.80
78317;BME280;67572;50.930;18.276;2023-09-30T10:14:04;99686.06;;;15.94;83.42
78317;BME280;67572;50.930;18.276;2023-09-30T10:17:14;99683.38;;;15.94;84.26
78317;BME280;67572;50.930;18.276;2023-09-30T10:20:26;99686.44;;;15.90;84.17
78317;BME280;67572;50.930;18.276;2023-09-30T10:23:30;99684.47;;;15.92;83.36
78317;BME280;67572;50.930;18.276;2023-09-30T10:26:35;99676.91;;;15.97;83.61
78317;BME280;67572;50.930;18.276;2023-09-30T10:29:39;99691.31;;;15.85;83.21
78317;BME280;67572;50.930;18.276;2023-09-30T10:33:09;99687.78;;;15.84;83.89
78317;BME280;67572;50.930;18.276;2023-09-30T10:36:26;99693.91;;;15.75;83.44
78317;BME280;67572;50.930;18.276;2023-09-30T10:39:56;99691.81;;;15.78;82.92
78317;BME280;67572;50.930;18.276;2023-09-30T10:43:01;99694.00;;;15.85;82.72
78317;BME280;67572;50.930;18.276;2023-09-30T10:46:31;99699.72;;;16.02;82.73
78317;BME280;67572;50.930;18.276;2023-09-30T10:49:36;99694.28;;;16.25;81.20
78317;BME280;67572;50.930;18.276;2023-09-30T10:52:42;99688.75;;;16.58;78.63
78317;BME280;67572;50.930;18.276;2023-09-30T10:55:45;99686.88;;;16.38;76.34
78317;BME280;67572;50.930;18.276;2023-09-30T10:58:50;99688.47;;;16.41;75.66
78317;BME280;67572;50.930;18.276;2023-09-30T11:01:54;99688.72;;;16.37;76.66
78317;BME280;67572;50.930;18.276;2023-09-30T11:05:08;99684.38;;;16.57;76.48
78317;BME280;67572;50.930;18.276;2023-09-30T11:08:15;99681.13;;;16.96;74.18
78317;BME280;67572;50.930;18.276;2023-09-30T11:11:35;99688.38;;;17.05;73.03
78317;BME280;67572;50.930;18.276;2023-09-30T11:14:39;99679.94;;;17.40;69.80
78317;BME280;67572;50.930;18.276;2023-09-30T11:17:42;99666.44;;;17.61;67.01
78317;BME280;67572;50.930;18.276;2023-09-30T11:20:46;99671.22;;;18.07;67.85
78317;BME280;67572;50.930;18.276;2023-09-30T11:23:51;99677.44;;;18.27;65.74
78317;BME280;67572;50.930;18.276;2023-09-30T11:26:55;99677.03;;;18.41;64.18
78317;BME280;67572;50.930;18.276;2023-09-30T11:30:02;99672.22;;;18.54;64.69
78317;BME280;67572;50.930;18.276;2023-09-30T11:33:06;99681.69;;;18.58;63.28
78317;BME280;67572;50.930;18.276;2023-09-30T11:36:10;99682.84;;;18.85;63.45
78317;BME280;67572;50.930;18.276;2023-09-30T11:39:22;99669.81;;;18.61;61.00
78317;BME280;67572;50.930;18.276;2023-09-30T11:42:26;99681.72;;;18.39;61.52
78317;BME280;67572;50.930;18.276;2023-09-30T11:45:30;99674.63;;;18.38;60.46
78317;BME280;67572;50.930;18.276;2023-09-30T11:48:33;99667.81;;;18.53;59.85
78317;BME280;67572;50.930;18.276;2023-09-30T11:51:42;99682.28;;;18.72;59.07
78317;BME280;67572;50.930;18.276;2023-09-30T11:54:49;99680.44;;;18.34;60.65
78317;BME280;67572;50.930;18.276;2023-09-30T11:57:53;99680.44;;;18.24;61.38
78317;BME280;67572;50.930;18.276;2023-09-30T12:00:58;99679.00;;;18.10;60.25
78317;BME280;67572;50.930;18.276;2023-09-30T12:04:02;99691.59;;;18.00;60.75
78317;BME280;67572;50.930;18.276;2023-09-30T12:07:05;99687.31;;;17.78;60.81
78317;BME280;67572;50.930;18.276;2023-09-30T12:10:13;99684.06;;;17.84;61.71
78317;BME280;67572;50.930;18.276;2023-09-30T12:13:18;99689.31;;;17.86;60.20
78317;BME280;67572;50.930;18.276;2023-09-30T12:16:21;99682.78;;;17.98;60.17
78317;BME280;67572;50.930;18.276;2023-09-30T12:19:26;99697.69;;;18.12;61.64
78317;BME280;67572;50.930;18.276;2023-09-30T12:22:29;99677.84;;;18.03;58.26
78317;BME280;67572;50.930;18.276;2023-09-30T12:25:34;99681.56;;;18.41;58.28
78317;BME280;67572;50.930;18.276;2023-09-30T12:28:39;99687.06;;;18.58;57.94
78317;BME280;67572;50.930;18.276;2023-09-30T12:31:44;99695.06;;;18.70;56.87
78317;BME280;67572;50.930;18.276;2023-09-30T12:34:55;99694.75;;;18.53;57.38
78317;BME280;67572;50.930;18.276;2023-09-30T12:37:58;99693.06;;;18.52;56.12
78317;BME280;67572;50.930;18.276;2023-09-30T12:41:03;99688.69;;;18.51;55.19
78317;BME280;67572;50.930;18.276;2023-09-30T12:44:07;99689.44;;;19.10;53.38
78317;BME280;67572;50.930;18.276;2023-09-30T12:47:10;99697.19;;;19.32;52.37
78317;BME280;67572;50.930;18.276;2023-09-30T12:50:15;99700.28;;;19.37;52.19
78317;BME280;67572;50.930;18.276;2023-09-30T12:53:18;99698.41;;;19.01;53.53
78317;BME280;67572;50.930;18.276;2023-09-30T12:56:25;99705.84;;;18.70;54.68
78317;BME280;67572;50.930;18.276;2023-09-30T12:59:30;99710.91;;;18.73;56.60
78317;BME280;67572;50.930;18.276;2023-09-30T13:02:36;99698.72;;;18.40;55.30
78317;BME280;67572;50.930;18.276;2023-09-30T13:05:40;99707.53;;;18.51;54.84
78317;BME280;67572;50.930;18.276;2023-09-30T13:08:46;99708.06;;;18.94;55.06
78317;BME280;67572;50.930;18.276;2023-09-30T13:11:51;99702.34;;;19.16;51.65
78317;BME280;67572;50.930;18.276;2023-09-30T13:14:54;99704.16;;;19.35;51.93
78317;BME280;67572;50.930;18.276;2023-09-30T13:17:58;99704.09;;;18.88;52.29
78317;BME280;67572;50.930;18.276;2023-09-30T13:21:02;99699.84;;;18.85;52.24
78317;BME280;67572;50.930;18.276;2023-09-30T13:24:08;99696.78;;;19.18;52.52
78317;BME280;67572;50.930;18.276;2023-09-30T13:27:13;99703.75;;;19.10;52.91
78317;BME280;67572;50.930;18.276;2023-09-30T13:30:17;99703.75;;;19.10;53.34
78317;BME280;67572;50.930;18.276;2023-09-30T13:33:21;99700.09;;;19.02;52.98
78317;BME280;67572;50.930;18.276;2023-09-30T13:36:24;99709.22;;;18.91;53.72
78317;BME280;67572;50.930;18.276;2023-09-30T13:39:28;99700.06;;;19.11;54.17
78317;BME280;67572;50.930;18.276;2023-09-30T13:42:32;99707.81;;;18.77;53.08
78317;BME280;67572;50.930;18.276;2023-09-30T13:45:36;99711.03;;;18.33;54.73
78317;BME280;67572;50.930;18.276;2023-09-30T13:48:39;99711.63;;;18.46;55.03
78317;BME280;67572;50.930;18.276;2023-09-30T13:51:46;99708.06;;;18.36;53.12
78317;BME280;67572;50.930;18.276;2023-09-30T13:54:49;99711.91;;;18.52;54.48
78317;BME280;67572;50.930;18.276;2023-09-30T13:57:54;99713.91;;;18.79;53.13
78317;BME280;67572;50.930;18.276;2023-09-30T14:00:58;99720.97;;;18.61;53.75
78317;BME280;67572;50.930;18.276;2023-09-30T14:04:01;99713.75;;;18.91;53.77
78317;BME280;67572;50.930;18.276;2023-09-30T14:07:06;99708.97;;;18.75;51.90
78317;BME280;67572;50.930;18.276;2023-09-30T14:10:10;99714.03;;;18.97;51.94
78317;BME280;67572;50.930;18.276;2023-09-30T14:13:15;99720.25;;;19.07;52.55
78317;BME280;67572;50.930;18.276;2023-09-30T14:16:18;99710.47;;;18.48;51.10
78317;BME280;67572;50.930;18.276;2023-09-30T14:19:21;99721.66;;;18.24;52.12
78317;BME280;67572;50.930;18.276;2023-09-30T14:22:25;99716.84;;;18.18;51.47
78317;BME280;67572;50.930;18.276;2023-09-30T14:25:29;99719.91;;;18.04;52.70
78317;BME280;67572;50.930;18.276;2023-09-30T14:28:34;99714.22;;;17.97;52.41
78317;BME280;67572;50.930;18.276;2023-09-30T14:31:37;99723.91;;;17.69;53.81
78317;BME280;67572;50.930;18.276;2023-09-30T14:34:41;99715.66;;;17.92;53.36
78317;BME280;67572;50.930;18.276;2023-09-30T14:37:44;99723.75;;;18.01;53.56
78317;BME280;67572;50.930;18.276;2023-09-30T14:40:47;99720.50;;;18.08;54.12
78317;BME280;67572;50.930;18.276;2023-09-30T14:43:53;99719.28;;;17.81;55.80
78317;BME280;67572;50.930;18.276;2023-09-30T14:46:56;99721.00;;;17.82;53.02
78317;BME280;67572;50.930;18.276;2023-09-30T14:50:00;99721.59;;;17.55;53.20
78317;BME280;67572;50.930;18.276;2023-09-30T14:53:05;99724.13;;;17.57;54.37
78317;BME280;67572;50.930;18.276;2023-09-30T14:56:14;99729.34;;;17.48;54.43
78317;BME280;67572;50.930;18.276;2023-09-30T14:59:20;99736.97;;;17.23;56.30
78317;BME280;67572;50.930;18.276;2023-09-30T15:02:23;99737.22;;;17.40;55.80
78317;BME280;67572;50.930;18.276;2023-09-30T15:05:28;99728.19;;;17.20;55.40
78317;BME280;67572;50.930;18.276;2023-09-30T15:08:32;99734.22;;;17.13;56.27
78317;BME280;67572;50.930;18.276;2023-09-30T15:11:35;99735.75;;;17.06;56.01
78317;BME280;67572;50.930;18.276;2023-09-30T15:14:40;99741.09;;;16.85;56.60
78317;BME280;67572;50.930;18.276;2023-09-30T15:17:44;99745.00;;;16.71;56.65
78317;BME280;67572;50.930;18.276;2023-09-30T15:20:49;99739.13;;;16.66;57.41
78317;BME280;67572;50.930;18.276;2023-09-30T15:23:52;99739.63;;;16.71;56.35
78317;BME280;67572;50.930;18.276;2023-09-30T15:26:56;99743.50;;;16.67;57.13
78317;BME280;67572;50.930;18.276;2023-09-30T15:30:00;99744.69;;;16.85;56.75
78317;BME280;67572;50.930;18.276;2023-09-30T15:33:05;99743.34;;;16.80;56.92
78317;BME280;67572;50.930;18.276;2023-09-30T15:36:11;99745.97;;;16.70;57.40
78317;BME280;67572;50.930;18.276;2023-09-30T15:39:14;99756.44;;;16.62;56.88
78317;BME280;67572;50.930;18.276;2023-09-30T15:42:18;99761.03;;;16.50;56.08
78317;BME280;67572;50.930;18.276;2023-09-30T15:45:23;99764.59;;;16.40;56.97
78317;BME280;67572;50.930;18.276;2023-09-30T15:48:26;99759.59;;;16.35;58.22
78317;BME280;67572;50.930;18.276;2023-09-30T15:51:30;99754.25;;;16.35;57.48
78317;BME280;67572;50.930;18.276;2023-09-30T15:54:33;99770.06;;;16.38;58.53
78317;BME280;67572;50.930;18.276;2023-09-30T15:57:37;99766.09;;;16.21;58.12
78317;BME280;67572;50.930;18.276;2023-09-30T16:00:46;99775.28;;;16.07;57.93
78317;BME280;67572;50.930;18.276;2023-09-30T16:03:50;99778.72;;;15.98;58.30
78317;BME280;67572;50.930;18.276;2023-09-30T16:06:55;99786.63;;;15.77;59.81